Terminal Aerodrome Forecast
Issued by NWS Omaha/Valley, NE

Home | Current Version | Previous Version | Text Only | Print | Product List | Glossary On
Versions: 1 2 3 4 5 6 7 8 9 10 11 12 13 14 15 16
000
FTUS43 KOAX 220759 AAB
TAFOMA
TAF AMD
KOMA 220759Z 2208/2306 02014KT P6SM FEW006 OVC012
     FM221000 01015G23KT 1 1/2SM -RA BR OVC003
      TEMPO 2210/2213 3/4SM RASN BR
     FM221300 35018G24KT 3/4SM -SN OVC003
     FM221800 34025G34KT 1SM -SN BLSN OVC008 PROB30 2222/2304 3/4SM
      -SN OVC003=

USA.gov is the U.S. government's official web portal to all federal, state and local government web resources and services.